Aviation Digital Data Service (ADDS)

Output produced by METARs form (1244 UTC 30 June 2015)
found at http://www.aviationweather.gov/adds/metars/
 
METAR text: KSBP 301156Z 14003KT 10SM CLR 15/12 A2988 RMK AO2 SLP115 T01500117 10167 20144 56004
Conditions at: KSBP (SAN LUIS OBISPO , CA, US) observed 1156 UTC 30 June 2015
Temperature: 15.0°C (59°F)
Dewpoint: 11.7°C (53°F) [RH = 81%]
Pressure (altimeter): 29.88 inches Hg (1011.9 mb)
[Sea-level pressure: 1011.5 mb]
Winds: from the SE (140 degrees) at 3 MPH (3 knots; 1.6 m/s)
Visibility: 10 or more miles (16+ km)
Ceiling: at least 12,000 feet AGL
Clouds: sky clear below 12,000 feet AGL
Weather: no significant weather observed at this time

METAR text: KSBP 301056Z 00000KT 10SM CLR 15/12 A2988 RMK AO2 SLP115 T01500117
Conditions at: KSBP (SAN LUIS OBISPO , CA, US) observed 1056 UTC 30 June 2015
Temperature: 15.0°C (59°F)
Dewpoint: 11.7°C (53°F) [RH = 81%]
Pressure (altimeter): 29.88 inches Hg (1011.9 mb)
[Sea-level pressure: 1011.5 mb]
Winds: calm
Visibility: 10 or more miles (16+ km)
Ceiling: at least 12,000 feet AGL
Clouds: sky clear below 12,000 feet AGL
Weather: no significant weather observed at this time

METAR text: KSBP 300956Z 00000KT 10SM CLR 15/12 A2989 RMK AO2 SLP118 T01500122
Conditions at: KSBP (SAN LUIS OBISPO , CA, US) observed 0956 UTC 30 June 2015
Temperature: 15.0°C (59°F)
Dewpoint: 12.2°C (54°F) [RH = 83%]
Pressure (altimeter): 29.89 inches Hg (1012.3 mb)
[Sea-level pressure: 1011.8 mb]
Winds: calm
Visibility: 10 or more miles (16+ km)
Ceiling: at least 12,000 feet AGL
Clouds: sky clear below 12,000 feet AGL
Weather: no significant weather observed at this time

METAR text: KSBP 300856Z 30003KT 10SM CLR 15/12 A2989 RMK AO2 SLP119 T01500122 58011
Conditions at: KSBP (SAN LUIS OBISPO , CA, US) observed 0856 UTC 30 June 2015
Temperature: 15.0°C (59°F)
Dewpoint: 12.2°C (54°F) [RH = 83%]
Pressure (altimeter): 29.89 inches Hg (1012.3 mb)
[Sea-level pressure: 1011.9 mb]
Winds: from the WNW (300 degrees) at 3 MPH (3 knots; 1.6 m/s)
Visibility: 10 or more miles (16+ km)
Ceiling: at least 12,000 feet AGL
Clouds: sky clear below 12,000 feet AGL
Weather: no significant weather observed at this time

METAR text: KSBP 300756Z 00000KT 10SM CLR 16/12 A2991 RMK AO2 SLP126 T01560117 402610139
Conditions at: KSBP (SAN LUIS OBISPO , CA, US) observed 0756 UTC 30 June 2015
Temperature: 15.6°C (60°F)
Dewpoint: 11.7°C (53°F) [RH = 78%]
Pressure (altimeter): 29.91 inches Hg (1013.0 mb)
[Sea-level pressure: 1012.6 mb]
Winds: calm
Visibility: 10 or more miles (16+ km)
Ceiling: at least 12,000 feet AGL
Clouds: sky clear below 12,000 feet AGL
Weather: no significant weather observed at this time

METAR text: KSBP 300656Z 10SM CLR 16/12 A2991 RMK AO2 SLP127 T01610122
Conditions at: KSBP (SAN LUIS OBISPO , CA, US) observed 0656 UTC 30 June 2015
Temperature: 16.1°C (61°F)
Dewpoint: 12.2°C (54°F) [RH = 78%]
Pressure (altimeter): 29.91 inches Hg (1013.0 mb)
[Sea-level pressure: 1012.7 mb]
Winds: missing
Visibility: 10 or more miles (16+ km)
Ceiling: at least 12,000 feet AGL
Clouds: sky clear below 12,000 feet AGL
Weather: no significant weather observed at this time

METAR text: KSBP 300556Z 18005KT 10SM CLR 17/12 A2992 RMK AO2 SLP131 T01670122 10250 20161 51010
Conditions at: KSBP (SAN LUIS OBISPO , CA, US) observed 0556 UTC 30 June 2015
Temperature: 16.7°C (62°F)
Dewpoint: 12.2°C (54°F) [RH = 75%]
Pressure (altimeter): 29.92 inches Hg (1013.3 mb)
[Sea-level pressure: 1013.1 mb]
Winds: from the S (180 degrees) at 6 MPH (5 knots; 2.6 m/s)
Visibility: 10 or more miles (16+ km)
Ceiling: at least 12,000 feet AGL
Clouds: sky clear below 12,000 feet AGL
Weather: no significant weather observed at this time

METAR text: KSBP 300456Z 31003KT 10SM CLR 16/12 A2992 RMK AO2 SLP130 T01610122
Conditions at: KSBP (SAN LUIS OBISPO , CA, US) observed 0456 UTC 30 June 2015
Temperature: 16.1°C (61°F)
Dewpoint: 12.2°C (54°F) [RH = 78%]
Pressure (altimeter): 29.92 inches Hg (1013.3 mb)
[Sea-level pressure: 1013.0 mb]
Winds: from the NW (310 degrees) at 3 MPH (3 knots; 1.6 m/s)
Visibility: 10 or more miles (16+ km)
Ceiling: at least 12,000 feet AGL
Clouds: sky clear below 12,000 feet AGL
Weather: no significant weather observed at this time